Time;durP1;ratioP1;P1;durP2;ratioP2;P2;SDS_P1;SDS_P2;PMS_P1;PMS_P2;Temp;Humidity;BMP_temperature;BMP_pressure;BME280_temperature;BME280_humidity;BME280_pressure;Samples;Min_cycle;Max_cycle;Signal;HPM_P1;HPM_P2
2021/06/15 00:02:35;;;;;;;13.75;12.15;;;24.50;53.30;;;;;;4498331;59;21063;-25
2021/06/15 00:07:37;;;;;;;13.95;12.18;;;24.50;53.20;;;;;;4450695;59;21714;-34
2021/06/15 00:12:39;;;;;;;14.82;12.10;;;24.50;53.20;;;;;;4444973;59;21146;-34
2021/06/15 00:17:40;;;;;;;14.90;12.48;;;24.50;53.20;;;;;;4437276;59;21157;-32
2021/06/15 00:22:42;;;;;;;13.73;12.27;;;24.50;53.30;;;;;;4452176;59;21642;-34
2021/06/15 00:27:44;;;;;;;14.32;12.45;;;24.50;53.30;;;;;;4464922;59;21149;-33
2021/06/15 00:32:47;;;;;;;13.45;12.02;;;24.50;53.30;;;;;;4433871;63;21039;-34
2021/06/15 00:37:49;;;;;;;13.55;12.15;;;24.50;53.40;;;;;;4439456;59;21538;-34
2021/06/15 00:42:51;;;;;;;13.27;11.88;;;24.50;53.40;;;;;;4433433;63;21059;-31
2021/06/15 00:47:56;;;;;;;13.32;11.45;;;24.50;53.40;;;;;;4454647;59;21537;-35
2021/06/15 00:52:57;;;;;;;12.37;11.05;;;24.50;53.40;;;;;;4441994;59;21059;-27
2021/06/15 00:57:58;;;;;;;12.45;10.77;;;24.50;53.50;;;;;;4452040;59;21685;-25
2021/06/15 01:02:59;;;;;;;14.50;11.30;;;24.50;53.70;;;;;;4454425;59;21169;-26
2021/06/15 01:08:48;;;;;;;13.35;11.95;;;24.50;53.50;;;;;;4446011;59;21036;-26
2021/06/15 01:15:24;;;;;;;14.73;11.45;;;24.50;53.50;;;;;;4466044;58;21028;-27
2021/06/15 01:20:26;;;;;;;;;;;24.50;53.50;;;;;;4444995;59;21075;-24
2021/06/15 01:25:44;;;;;;;13.10;10.57;;;24.40;53.50;;;;;;4433891;63;20119;-26
2021/06/15 01:31:09;;;;;;;12.20;10.90;;;24.50;53.60;;;;;;4479470;59;21550;-33
2021/06/15 01:36:13;;;;;;;12.20;10.90;;;24.50;53.60;;;;;;4434187;59;21116;-33
2021/06/15 01:41:18;;;;;;;12.48;10.50;;;24.50;53.70;;;;;;4502636;58;22323;-33
2021/06/15 01:46:23;;;;;;;12.73;10.95;;;24.40;53.60;;;;;;4453011;58;21581;-28
2021/06/15 01:51:25;;;;;;;11.73;10.55;;;24.50;53.70;;;;;;4477085;59;21760;-35
2021/06/15 01:56:31;;;;;;;12.00;10.70;;;24.50;53.70;;;;;;4460112;59;21522;-30
2021/06/15 02:01:34;;;;;;;12.13;10.18;;;24.40;53.70;;;;;;4454451;59;21454;-28
2021/06/15 02:06:36;;;;;;;11.80;9.98;;;24.50;53.80;;;;;;4433325;63;21059;-35
2021/06/15 02:11:40;;;;;;;12.02;10.38;;;24.50;53.80;;;;;;4441886;59;21047;-27
2021/06/15 02:16:41;;;;;;;11.45;10.25;;;24.40;53.90;;;;;;4453161;59;21099;-25
2021/06/15 02:21:46;;;;;;;11.10;9.75;;;24.40;53.80;;;;;;4461604;58;21064;-29
2021/06/15 02:26:50;;;;;;;10.55;9.43;;;24.40;53.80;;;;;;4471310;59;21567;-33
2021/06/15 02:32:03;;;;;;;10.65;9.52;;;24.40;53.80;;;;;;4506638;59;21056;-34
2021/06/15 02:37:07;;;;;;;11.75;9.75;;;24.40;53.80;;;;;;4477942;59;21118;-34
2021/06/15 02:42:12;;;;;;;10.98;9.77;;;24.40;53.90;;;;;;4464509;58;21569;-35
2021/06/15 02:47:15;;;;;;;10.90;9.80;;;24.40;53.90;;;;;;4476616;59;21542;-31
2021/06/15 02:52:37;;;;;;;11.73;10.52;;;24.40;53.90;;;;;;4433897;63;21112;-32
2021/06/15 02:57:38;;;;;;;11.00;9.43;;;24.40;53.90;;;;;;4455651;59;21627;-29
2021/06/15 03:02:39;;;;;;;10.52;9.25;;;24.40;54.00;;;;;;4433487;63;21061;-25
2021/06/15 03:07:41;;;;;;;12.27;9.30;;;24.40;54.00;;;;;;4436881;59;21167;-29
2021/06/15 03:13:04;;;;;;;10.93;9.73;;;24.40;54.00;;;;;;4455780;59;21626;-33
2021/06/15 03:18:19;;;;;;;12.07;9.85;;;24.40;54.00;;;;;;4434508;59;21208;-32
2021/06/15 03:24:37;;;;;;;10.10;9.07;;;24.40;54.00;;;;;;4490555;59;21557;-21
2021/06/15 03:29:40;;;;;;;9.18;8.27;;;24.40;54.00;;;;;;4454338;59;21602;-34
2021/06/15 03:34:44;;;;;;;10.32;9.20;;;24.40;54.10;;;;;;4439178;59;21207;-32
2021/06/15 03:39:46;;;;;;;9.90;8.85;;;24.40;54.10;;;;;;4443113;59;21067;-33
2021/06/15 03:45:08;;;;;;;10.75;9.25;;;24.40;54.10;;;;;;4442171;59;21080;-34
2021/06/15 03:50:13;;;;;;;10.05;9.02;;;24.40;54.10;;;;;;4456636;58;21076;-36
2021/06/15 03:55:17;;;;;;;9.07;7.87;;;24.40;54.10;;;;;;4450596;59;21136;-29
2021/06/15 04:00:23;;;;;;;9.65;8.65;;;24.40;54.10;;;;;;4534692;59;21087;-33
2021/06/15 04:05:27;;;;;;;10.23;8.97;;;24.40;54.20;;;;;;4484441;59;21609;-26
2021/06/15 04:10:29;;;;;;;11.50;8.98;;;24.40;54.20;;;;;;4442688;59;21541;-31
2021/06/15 04:15:33;;;;;;;9.07;7.97;;;24.40;54.30;;;;;;4435060;59;21554;-35
2021/06/15 04:20:39;;;;;;;9.35;8.35;;;24.40;54.20;;;;;;4437204;59;21601;-27
2021/06/15 04:25:41;;;;;;;8.90;8.00;;;24.40;54.30;;;;;;4491690;59;21618;-34
2021/06/15 04:30:43;;;;;;;9.93;8.25;;;24.40;54.30;;;;;;4438173;59;21083;-30
2021/06/15 04:35:47;;;;;;;9.43;8.43;;;24.40;54.40;;;;;;4433714;63;21573;-33
2021/06/15 04:40:51;;;;;;;9.65;8.20;;;24.40;54.40;;;;;;4482939;59;22506;-34
2021/06/15 04:46:14;;;;;;;8.60;7.65;;;24.40;54.40;;;;;;4438050;59;21040;-33
2021/06/15 04:51:19;;;;;;;9.18;7.95;;;24.40;54.50;;;;;;4449066;59;21056;-35
2021/06/15 04:56:22;;;;;;;8.27;7.47;;;24.40;55.10;;;;;;4442865;59;21115;-33
2021/06/15 05:01:23;;;;;;;9.80;8.57;;;24.40;54.50;;;;;;4433078;63;21179;-28
2021/06/15 05:06:25;;;;;;;9.32;7.97;;;24.40;54.60;;;;;;4434637;59;21156;-35
2021/06/15 05:11:33;;;;;;;9.48;8.48;;;24.40;54.60;;;;;;4440672;59;21128;-23
2021/06/15 05:16:36;;;;;;;8.93;8.02;;;24.40;54.60;;;;;;4476046;58;21678;-26
2021/06/15 05:21:51;;;;;;;9.02;8.02;;;24.40;54.60;;;;;;4455807;59;21075;-26
2021/06/15 05:26:52;;;;;;;9.32;7.95;;;24.40;54.60;;;;;;4451280;59;21051;-25
2021/06/15 05:31:53;;;;;;;8.45;7.55;;;24.40;54.60;;;;;;4444802;59;21099;-25
2021/06/15 05:36:54;;;;;;;9.55;8.10;;;24.40;54.60;;;;;;4475935;59;21059;-20
2021/06/15 05:41:54;;;;;;;9.55;7.55;;;24.40;54.60;;;;;;4433407;63;21071;-22
2021/06/15 05:46:55;;;;;;;8.13;7.32;;;24.40;54.60;;;;;;4449026;59;21020;-35
2021/06/15 05:52:05;;;;;;;8.38;7.47;;;24.40;54.60;;;;;;4495161;58;21051;-28
2021/06/15 05:57:06;;;;;;;10.35;7.78;;;24.40;54.60;;;;;;4464424;59;21139;-30
2021/06/15 06:02:07;;;;;;;9.45;7.78;;;24.40;54.60;;;;;;4477202;59;21076;-30
2021/06/15 06:12:27;;;;;;;9.32;7.57;;;24.30;54.50;;;;;;4451821;59;21553;-29
2021/06/15 06:17:28;;;;;;;8.90;7.32;;;24.40;54.60;;;;;;4440650;59;21135;-30
2021/06/15 06:22:29;;;;;;;9.25;8.10;;;24.40;54.60;;;;;;4440088;59;21096;-31
2021/06/15 06:27:30;;;;;;;13.07;8.38;;;24.30;54.50;;;;;;4441495;59;21063;-29
2021/06/15 06:32:30;;;;;;;11.27;7.90;;;24.40;54.60;;;;;;4433246;63;21382;-31
2021/06/15 06:37:32;;;;;;;9.30;8.30;;;24.30;54.50;;;;;;4449018;59;21529;-26
2021/06/15 06:42:33;;;;;;;10.75;8.10;;;24.30;54.50;;;;;;4438856;59;21200;-29
2021/06/15 06:47:34;;;;;;;8.38;7.57;;;24.30;54.50;;;;;;4450866;59;21565;-29
2021/06/15 06:52:35;;;;;;;8.93;8.02;;;24.40;54.60;;;;;;4462911;59;21104;-27
2021/06/15 06:57:36;;;;;;;8.75;7.85;;;24.30;54.50;;;;;;4486832;59;21542;-25
2021/06/15 07:02:36;;;;;;;9.23;8.23;;;24.30;54.50;;;;;;4597754;59;21112;-30
2021/06/15 07:07:37;;;;;;;9.45;8.15;;;24.30;54.50;;;;;;4432255;63;21103;-30
2021/06/15 07:12:38;;;;;;;9.25;8.23;;;24.40;54.60;;;;;;4442820;59;21506;-28
2021/06/15 07:17:39;;;;;;;14.50;9.63;;;24.40;54.60;;;;;;4435945;59;21569;-37
2021/06/15 07:22:40;;;;;;;12.90;10.10;;;24.50;55.40;;;;;;4447524;59;21115;-34
2021/06/15 07:27:42;;;;;;;12.70;10.00;;;24.50;54.80;;;;;;4481913;58;21059;-31
2021/06/15 07:32:43;;;;;;;11.90;9.80;;;24.50;54.90;;;;;;4470287;58;21593;-29
2021/06/15 07:37:43;;;;;;;12.20;10.75;;;24.50;55.00;;;;;;4443779;59;21118;-27
2021/06/15 07:42:44;;;;;;;11.18;10.05;;;24.60;55.10;;;;;;4465514;59;21577;-27
2021/06/15 07:47:45;;;;;;;12.88;10.85;;;24.60;55.10;;;;;;4431333;63;21170;-33
2021/06/15 07:52:47;;;;;;;13.60;11.07;;;24.60;54.90;;;;;;4433074;63;21075;-33
2021/06/15 07:57:48;;;;;;;14.13;10.95;;;24.70;54.80;;;;;;4439186;59;21163;-19
2021/06/15 08:02:50;;;;;;;12.82;11.38;;;24.60;54.80;;;;;;4442561;59;21170;-31
2021/06/15 08:07:54;;;;;;;12.55;10.75;;;24.70;54.80;;;;;;4511513;59;21153;-20
2021/06/15 08:12:57;;;;;;;19.33;14.73;;;24.70;56.80;;;;;;4434955;59;21432;-32
2021/06/15 08:17:58;;;;;;;21.15;16.35;;;24.70;54.50;;;;;;4474034;59;21546;-29
2021/06/15 08:22:59;;;;;;;23.60;19.95;;;24.70;54.40;;;;;;4435412;59;21104;-30
2021/06/15 08:28:00;;;;;;;26.25;19.73;;;24.70;54.40;;;;;;4452072;59;21116;-27
2021/06/15 08:33:01;;;;;;;26.02;20.90;;;24.70;54.50;;;;;;4432507;60;21075;-31
2021/06/15 08:38:03;;;;;;;26.23;21.85;;;24.70;54.60;;;;;;4433191;63;21175;-27
2021/06/15 08:43:04;;;;;;;26.05;21.77;;;24.70;54.60;;;;;;4458525;58;21110;-31
2021/06/15 08:48:05;;;;;;;26.17;21.25;;;24.70;54.80;;;;;;4444265;59;21068;-31
2021/06/15 08:53:10;;;;;;;32.58;24.70;;;24.80;54.90;;;;;;4459247;59;21104;-30
2021/06/15 08:58:57;;;;;;;31.42;23.00;;;24.80;55.00;;;;;;4481573;58;21089;-25
2021/06/15 09:04:00;;;;;;;32.38;23.30;;;24.80;55.20;;;;;;4434767;59;22209;-24
2021/06/15 09:09:02;;;;;;;32.90;24.52;;;24.90;55.70;;;;;;4451579;58;21151;-30
2021/06/15 09:14:03;;;;;;;30.02;22.92;;;24.90;55.60;;;;;;4460164;59;21518;-26
2021/06/15 09:19:19;;;;;;;29.05;22.83;;;24.90;55.80;;;;;;4466816;59;21080;-29
2021/06/15 09:24:24;;;;;;;28.75;22.70;;;25.00;56.00;;;;;;4453025;59;21534;-27
2021/06/15 09:30:26;;;;;;;27.35;22.83;;;25.00;56.20;;;;;;4446907;59;21577;-29
2021/06/15 09:35:31;;;;;;;33.17;23.67;;;25.00;56.30;;;;;;4495771;59;21326;-33
2021/06/15 09:40:35;;;;;;;33.25;23.05;;;25.10;56.70;;;;;;4445126;59;21598;-30
2021/06/15 09:45:44;;;;;;;37.92;23.08;;;25.10;56.80;;;;;;4448899;59;21183;-30
2021/06/15 09:50:45;;;;;;;32.58;23.38;;;25.10;57.20;;;;;;4474202;59;21052;-27
2021/06/15 09:55:47;;;;;;;31.85;23.02;;;25.20;57.20;;;;;;4432162;63;21192;-29
2021/06/15 10:00:53;;;;;;;28.98;23.75;;;25.10;57.20;;;;;;4449280;59;21626;-29
2021/06/15 10:05:54;;;;;;;33.35;23.45;;;25.10;57.30;;;;;;4455556;59;22175;-29
2021/06/15 10:10:55;;;;;;;34.58;26.05;;;25.10;58.50;;;;;;4444532;59;21073;-37
2021/06/15 10:15:56;;;;;;;32.90;26.90;;;25.10;57.30;;;;;;4455359;59;21565;-27
2021/06/15 10:20:57;;;;;;;34.90;26.15;;;25.10;56.80;;;;;;4469084;59;21112;-29
2021/06/15 10:25:58;;;;;;;31.62;25.70;;;25.10;57.20;;;;;;4437350;59;21140;-28
2021/06/15 10:31:03;;;;;;;36.25;26.45;;;25.10;57.00;;;;;;4431849;59;21600;-32
2021/06/15 10:36:05;;;;;;;30.55;25.92;;;25.10;57.30;;;;;;4434696;59;21055;-29
2021/06/15 10:41:08;;;;;;;33.35;25.12;;;25.10;57.30;;;;;;4446139;59;21186;-32
2021/06/15 10:47:07;;;;;;;36.05;26.60;;;25.10;57.30;;;;;;4444192;59;21071;-31
2021/06/15 10:52:09;;;;;;;33.38;25.20;;;25.10;57.40;;;;;;4438270;59;21112;-24
2021/06/15 10:57:23;;;;;;;33.38;27.20;;;25.20;57.50;;;;;;4450469;59;21534;-24
2021/06/15 11:02:27;;;;;;;30.60;25.62;;;25.10;57.50;;;;;;4447088;58;22040;-31
2021/06/15 11:07:38;;;;;;;31.92;26.37;;;25.10;57.30;;;;;;4462455;58;21613;-28
2021/06/15 11:12:48;;;;;;;32.38;25.42;;;25.10;57.20;;;;;;4432730;63;21602;-30
2021/06/15 11:17:58;;;;;;;31.85;25.27;;;25.10;57.20;;;;;;4444711;59;21831;-31
2021/06/15 11:23:25;;;;;;;30.73;25.10;;;25.10;57.10;;;;;;4437482;59;21091;-31
2021/06/15 11:33:31;;;;;;;28.67;24.63;;;25.10;57.10;;;;;;4433760;59;21594;-28
2021/06/15 11:38:32;;;;;;;34.15;26.98;;;25.00;57.00;;;;;;4459206;59;21489;-32
2021/06/15 11:43:34;;;;;;;39.42;30.60;;;25.10;56.00;;;;;;4469940;59;21115;-31
2021/06/15 11:48:35;;;;;;;40.78;33.08;;;25.00;52.70;;;;;;4439304;59;21202;-29
2021/06/15 11:53:43;;;;;;;43.72;34.15;;;25.00;52.20;;;;;;4433131;63;21075;-26
2021/06/15 11:58:47;;;;;;;43.67;34.28;;;25.00;51.60;;;;;;4435318;59;21189;-30
2021/06/15 12:03:49;;;;;;;50.03;37.92;;;25.10;51.00;;;;;;4436752;59;21156;-28
2021/06/15 12:08:50;;;;;;;45.92;37.60;;;25.10;50.90;;;;;;4432424;59;21120;-21
2021/06/15 12:13:51;;;;;;;51.25;40.05;;;25.10;50.60;;;;;;4432894;63;21618;-29
2021/06/15 12:18:57;;;;;;;47.53;37.40;;;25.10;50.40;;;;;;4432449;63;21146;-22
2021/06/15 12:24:00;;;;;;;47.95;38.90;;;25.10;50.10;;;;;;4471628;59;21166;-30
2021/06/15 12:29:06;;;;;;;51.42;38.67;;;25.10;49.80;;;;;;4465054;59;21174;-27
2021/06/15 12:34:09;;;;;;;54.60;40.55;;;25.10;49.50;;;;;;4436072;58;21059;-34
2021/06/15 12:39:20;;;;;;;50.38;39.60;;;25.10;49.50;;;;;;4463244;59;21212;-33
2021/06/15 12:44:25;;;;;;;49.10;38.80;;;25.10;49.50;;;;;;4485275;59;21071;-27
2021/06/15 12:49:26;;;;;;;50.95;40.22;;;25.10;49.40;;;;;;4472815;59;21127;-34
2021/06/15 12:54:36;;;;;;;50.20;36.83;;;25.10;49.20;;;;;;4450579;59;21036;-33
2021/06/15 12:59:42;;;;;;;47.65;37.80;;;25.10;49.10;;;;;;4462723;58;22030;-30
2021/06/15 13:05:07;;;;;;;41.50;33.87;;;25.10;48.80;;;;;;4440858;59;21095;-27
2021/06/15 13:10:17;;;;;;;42.08;32.88;;;25.10;49.00;;;;;;4453381;59;21144;-33
2021/06/15 13:15:23;;;;;;;41.15;31.92;;;25.10;48.80;;;;;;4438113;59;21141;-28
2021/06/15 13:20:25;;;;;;;44.13;32.47;;;25.10;48.80;;;;;;4443419;59;21099;-25
2021/06/15 13:25:31;;;;;;;42.50;31.77;;;25.10;49.20;;;;;;4470800;59;21063;-28
2021/06/15 13:30:40;;;;;;;39.07;31.63;;;25.10;49.00;;;;;;4452942;59;21037;-32
2021/06/15 13:35:51;;;;;;;45.75;33.45;;;25.10;49.10;;;;;;4457344;59;21412;-33
2021/06/15 13:41:03;;;;;;;45.75;34.15;;;25.10;48.90;;;;;;4433454;63;21529;-36
2021/06/15 13:46:09;;;;;;;39.80;31.83;;;25.00;49.00;;;;;;4456627;59;21107;-33
2021/06/15 13:51:13;;;;;;;36.67;30.23;;;25.10;49.50;;;;;;4466611;59;21412;-31
2021/06/15 13:56:16;;;;;;;37.83;30.12;;;25.10;49.70;;;;;;4463162;59;21509;-20
2021/06/15 14:01:16;;;;;;;35.28;29.52;;;25.10;50.00;;;;;;4438039;59;21075;-35
2021/06/15 14:06:17;;;;;;;34.80;29.37;;;25.10;50.20;;;;;;4438479;59;21059;-26
2021/06/15 14:11:18;;;;;;;38.05;29.55;;;25.10;50.40;;;;;;4438569;59;21056;-34
2021/06/15 14:16:19;;;;;;;35.75;29.45;;;25.10;50.60;;;;;;4466566;59;21076;-34
2021/06/15 14:21:20;;;;;;;33.00;27.85;;;25.20;50.90;;;;;;4457787;59;21103;-34
2021/06/15 14:26:20;;;;;;;35.13;29.92;;;25.20;51.00;;;;;;4440216;59;21064;-34
2021/06/15 14:31:21;;;;;;;33.50;28.70;;;25.20;51.20;;;;;;4440274;59;21115;-32
2021/06/15 14:36:22;;;;;;;36.80;29.60;;;25.20;51.50;;;;;;4433566;60;21051;-32
2021/06/15 14:41:24;;;;;;;36.05;30.12;;;25.20;51.60;;;;;;4505921;59;21117;-24
2021/06/15 14:46:24;;;;;;;36.65;29.30;;;25.20;51.70;;;;;;4470445;59;21111;-33
2021/06/15 14:51:25;;;;;;;33.97;28.48;;;25.20;51.90;;;;;;4441305;59;21055;-34
2021/06/15 14:56:26;;;;;;;37.58;31.45;;;25.20;52.10;;;;;;4432921;63;21060;-30
2021/06/15 15:01:27;;;;;;;37.90;30.17;;;25.20;52.10;;;;;;4442133;59;21112;-32
2021/06/15 15:06:27;;;;;;;37.63;30.95;;;25.20;52.30;;;;;;4447332;59;21626;-29
2021/06/15 15:11:28;;;;;;;37.28;29.58;;;25.20;52.30;;;;;;4551541;59;21055;-34
2021/06/15 15:16:29;;;;;;;41.20;30.08;;;25.10;52.50;;;;;;4443528;59;21578;-29
2021/06/15 15:21:32;;;;;;;35.20;29.92;;;25.10;52.60;;;;;;4444552;59;21108;-35
2021/06/15 15:26:35;;;;;;;34.22;28.75;;;25.10;52.70;;;;;;4464692;59;21139;-30
2021/06/15 15:31:36;;;;;;;33.85;27.90;;;25.10;52.80;;;;;;4433496;59;21095;-32
2021/06/15 15:36:36;;;;;;;35.40;28.87;;;25.00;52.80;;;;;;4505272;59;21626;-29
2021/06/15 15:41:37;;;;;;;32.05;27.70;;;25.00;52.90;;;;;;4443513;59;21079;-34
2021/06/15 15:46:38;;;;;;;33.45;28.70;;;25.00;53.00;;;;;;4433936;59;21553;-33
2021/06/15 15:51:40;;;;;;;34.97;27.40;;;24.90;53.00;;;;;;4448550;59;21107;-34
2021/06/15 15:56:45;;;;;;;33.35;28.05;;;24.90;53.00;;;;;;4462462;58;21060;-28
2021/06/15 16:01:46;;;;;;;33.67;27.50;;;24.90;53.10;;;;;;4471208;59;21051;-31
2021/06/15 16:06:47;;;;;;;34.00;27.80;;;24.90;53.10;;;;;;4457242;59;21047;-27
2021/06/15 16:11:47;;;;;;;31.62;27.75;;;24.90;53.20;;;;;;4435665;59;21633;-33
2021/06/15 16:16:49;;;;;;;33.00;26.98;;;24.90;53.20;;;;;;4471403;59;21156;-35
2021/06/15 16:21:49;;;;;;;30.70;26.33;;;24.90;53.30;;;;;;4433434;59;21124;-31
2021/06/15 16:26:51;;;;;;;31.12;27.73;;;24.90;53.30;;;;;;4434273;59;21044;-34
2021/06/15 16:31:52;;;;;;;31.40;25.00;;;24.90;53.40;;;;;;4457606;59;21633;-33
2021/06/15 16:36:52;;;;;;;31.55;26.12;;;24.90;53.40;;;;;;4448689;59;21136;-31
2021/06/15 16:41:55;;;;;;;34.30;28.80;;;24.90;53.60;;;;;;4439249;59;21083;-31
2021/06/15 16:46:56;;;;;;;33.83;27.40;;;24.90;53.50;;;;;;4510664;58;21107;-35
2021/06/15 16:51:57;;;;;;;33.85;28.80;;;24.90;53.50;;;;;;4462302;58;21063;-31
2021/06/15 16:56:58;;;;;;;32.50;26.62;;;24.80;53.60;;;;;;4451650;59;21575;-33
2021/06/15 17:01:59;;;;;;;32.13;27.40;;;24.80;53.60;;;;;;4432623;63;21080;-26
2021/06/15 17:07:00;;;;;;;30.30;25.70;;;24.80;53.60;;;;;;4457067;59;21064;-31
2021/06/15 17:12:01;;;;;;;29.25;24.77;;;24.80;53.60;;;;;;4435465;59;21071;-34
2021/06/15 17:17:02;;;;;;;29.92;25.90;;;24.80;53.60;;;;;;4469896;59;21107;-30
2021/06/15 17:22:05;;;;;;;30.35;24.80;;;24.80;53.70;;;;;;4443320;59;21061;-31
2021/06/15 17:27:06;;;;;;;29.73;24.73;;;24.80;53.70;;;;;;4455116;59;21200;-33
2021/06/15 17:32:07;;;;;;;28.55;24.33;;;24.80;53.70;;;;;;4506926;58;21127;-34
2021/06/15 17:37:08;;;;;;;29.52;24.77;;;24.80;53.70;;;;;;4434167;59;21587;-23
2021/06/15 17:42:10;;;;;;;28.42;24.12;;;24.80;53.80;;;;;;4461819;59;21091;-32
2021/06/15 17:47:10;;;;;;;26.87;23.33;;;24.70;53.80;;;;;;4462792;59;21667;-34
2021/06/15 17:52:11;;;;;;;29.85;24.02;;;24.80;53.80;;;;;;4488494;58;21166;-27
2021/06/15 17:57:14;;;;;;;26.58;23.05;;;24.80;53.80;;;;;;4440527;59;21617;-28
2021/06/15 18:02:15;;;;;;;26.95;22.87;;;24.80;53.80;;;;;;4491430;59;21541;-27
2021/06/15 18:07:24;;;;;;;26.87;22.08;;;24.80;53.90;;;;;;4434918;58;21120;-26
2021/06/15 18:12:25;;;;;;;28.48;24.10;;;24.80;53.90;;;;;;4464106;59;21513;-34
2021/06/15 18:17:25;;;;;;;29.25;24.35;;;24.80;53.90;;;;;;4445604;59;21136;-31
2021/06/15 18:22:26;;;;;;;25.48;22.02;;;24.70;53.90;;;;;;4433697;60;21569;-34
2021/06/15 18:27:27;;;;;;;26.87;22.80;;;24.80;53.90;;;;;;4439617;59;21091;-30
2021/06/15 18:32:28;;;;;;;28.35;24.05;;;24.80;54.00;;;;;;4467031;59;21051;-32
2021/06/15 18:37:29;;;;;;;26.67;22.77;;;24.80;54.00;;;;;;4444673;59;21116;-28
2021/06/15 18:42:30;;;;;;;27.98;23.08;;;24.80;54.00;;;;;;4450542;58;21068;-31
2021/06/15 18:47:33;;;;;;;25.33;22.10;;;24.80;54.00;;;;;;4440586;59;21060;-26
2021/06/15 18:52:34;;;;;;;27.13;24.23;;;24.80;54.10;;;;;;4434067;63;21601;-35
2021/06/15 18:57:35;;;;;;;26.52;23.52;;;24.80;54.10;;;;;;4442951;59;21051;-27
2021/06/15 19:02:37;;;;;;;25.88;21.58;;;24.70;54.10;;;;;;4452519;59;21175;-35
2021/06/15 19:07:38;;;;;;;25.65;22.27;;;24.70;54.10;;;;;;4463132;59;21047;-22
2021/06/15 19:12:39;;;;;;;23.67;20.52;;;24.80;54.20;;;;;;4438519;59;21067;-23
2021/06/15 19:17:40;;;;;;;24.10;20.75;;;24.80;54.20;;;;;;4441246;59;21573;-35
2021/06/15 19:22:41;;;;;;;24.15;21.20;;;24.80;54.30;;;;;;4433052;63;21099;-31
2021/06/15 19:27:42;;;;;;;24.00;21.27;;;24.70;54.20;;;;;;4450652;59;21131;-25
2021/06/15 19:32:42;;;;;;;27.23;22.20;;;24.70;54.30;;;;;;4433663;60;21094;-28
2021/06/15 19:37:43;;;;;;;27.33;21.87;;;24.70;54.30;;;;;;4444696;59;21052;-32
2021/06/15 19:42:44;;;;;;;24.60;21.75;;;24.70;54.30;;;;;;4472733;59;21151;-28
2021/06/15 19:47:47;;;;;;;26.02;21.60;;;24.70;54.30;;;;;;4433548;63;21937;-33
2021/06/15 19:52:47;;;;;;;23.70;20.27;;;24.70;54.40;;;;;;4445803;59;21041;-30
2021/06/15 19:57:49;;;;;;;24.95;21.85;;;24.70;54.40;;;;;;4439608;59;21051;-27
2021/06/15 20:02:51;;;;;;;22.13;19.77;;;24.70;54.40;;;;;;4442494;59;21072;-34
2021/06/15 20:07:52;;;;;;;22.45;20.02;;;24.70;54.40;;;;;;4441066;59;21525;-26
2021/06/15 20:12:53;;;;;;;23.50;20.60;;;24.70;54.50;;;;;;4461372;59;21123;-32
2021/06/15 20:17:53;;;;;;;23.65;20.75;;;24.70;54.50;;;;;;4440918;59;21096;-34
2021/06/15 20:22:56;;;;;;;24.65;21.08;;;24.70;54.60;;;;;;4467437;59;21064;-34
2021/06/15 20:27:57;;;;;;;23.70;20.50;;;24.70;54.50;;;;;;4433132;63;21569;-34
2021/06/15 20:32:58;;;;;;;22.95;19.67;;;24.70;54.60;;;;;;4433336;63;21063;-34
2021/06/15 20:37:59;;;;;;;21.80;19.40;;;24.70;54.60;;;;;;4436935;59;21140;-34
2021/06/15 20:42:59;;;;;;;23.58;20.88;;;24.70;54.70;;;;;;4433199;63;21043;-33
2021/06/15 20:48:01;;;;;;;23.95;19.98;;;24.70;54.60;;;;;;4433180;63;21047;-30
2021/06/15 20:53:02;;;;;;;22.45;19.20;;;24.70;54.60;;;;;;4434054;63;21561;-33
2021/06/15 20:58:03;;;;;;;22.25;19.70;;;24.70;54.70;;;;;;4436770;59;21059;-31
2021/06/15 21:03:04;;;;;;;21.67;19.37;;;24.70;54.70;;;;;;4433386;63;21107;-35
2021/06/15 21:08:05;;;;;;;23.30;20.37;;;24.70;54.70;;;;;;4459269;59;21043;-33
2021/06/15 21:13:07;;;;;;;22.27;19.90;;;24.70;54.70;;;;;;4455643;59;21039;-34
2021/06/15 21:18:08;;;;;;;21.83;19.33;;;24.70;54.70;;;;;;4433228;63;21079;-34
2021/06/15 21:23:08;;;;;;;20.65;18.15;;;24.70;54.80;;;;;;4433483;63;21354;-32
2021/06/15 21:28:09;;;;;;;22.83;19.87;;;24.70;54.80;;;;;;4433355;63;21522;-30
2021/06/15 21:33:10;;;;;;;21.55;18.92;;;24.70;54.80;;;;;;4445605;59;21124;-34
2021/06/15 21:38:11;;;;;;;20.50;18.30;;;24.70;54.90;;;;;;4508131;59;21039;-35
2021/06/15 21:43:13;;;;;;;23.33;19.48;;;24.70;54.80;;;;;;4446496;59;21143;-23
2021/06/15 21:48:14;;;;;;;22.23;19.10;;;24.70;54.90;;;;;;4442220;59;21675;-35
2021/06/15 21:53:15;;;;;;;20.80;18.58;;;24.70;55.60;;;;;;4443411;59;21055;-34
2021/06/15 21:58:17;;;;;;;22.77;19.50;;;24.70;55.00;;;;;;4476425;59;21043;-32
2021/06/15 22:03:18;;;;;;;21.05;18.80;;;24.70;54.90;;;;;;4484621;58;21554;-35
2021/06/15 22:08:19;;;;;;;21.60;19.10;;;24.70;55.00;;;;;;4434115;59;21103;-33
2021/06/15 22:13:20;;;;;;;19.80;17.52;;;24.70;55.00;;;;;;4442607;59;21059;-31
2021/06/15 22:18:21;;;;;;;19.60;17.50;;;24.70;55.00;;;;;;4439832;58;21079;-28
2021/06/15 22:23:22;;;;;;;18.98;16.98;;;24.70;55.00;;;;;;4449482;59;21087;-34
2021/06/15 22:28:22;;;;;;;18.60;16.60;;;24.70;55.00;;;;;;4435563;59;21056;-31
2021/06/15 22:33:24;;;;;;;19.23;17.23;;;24.70;55.00;;;;;;4442938;58;21616;-31
2021/06/15 22:38:25;;;;;;;20.02;17.87;;;24.70;55.10;;;;;;4504557;59;21093;-25
2021/06/15 22:43:25;;;;;;;19.60;17.52;;;24.70;55.10;;;;;;4479002;58;21091;-31
2021/06/15 22:48:26;;;;;;;19.17;17.17;;;24.70;55.10;;;;;;4454835;59;21043;-30
2021/06/15 22:53:27;;;;;;;18.42;16.42;;;24.70;55.20;;;;;;4454895;59;21079;-29
2021/06/15 22:58:28;;;;;;;19.02;17.02;;;24.70;55.20;;;;;;4476773;59;21071;-33
2021/06/15 23:03:29;;;;;;;18.98;16.98;;;24.70;55.10;;;;;;4451630;59;21568;-32
2021/06/15 23:08:29;;;;;;;18.02;16.12;;;24.70;55.20;;;;;;4464021;59;21052;-29
2021/06/15 23:13:30;;;;;;;18.73;16.77;;;24.70;55.20;;;;;;4446490;59;21124;-33
2021/06/15 23:18:31;;;;;;;19.85;17.27;;;24.70;55.20;;;;;;4436682;59;21123;-33
2021/06/15 23:23:32;;;;;;;19.27;16.70;;;24.70;55.20;;;;;;4451623;59;21546;-35
2021/06/15 23:28:33;;;;;;;18.90;16.87;;;24.70;55.20;;;;;;4466676;59;21050;-33
2021/06/15 23:33:34;;;;;;;18.65;16.52;;;24.70;55.20;;;;;;4442817;59;21066;-31
2021/06/15 23:38:35;;;;;;;18.02;15.88;;;24.70;55.20;;;;;;4439892;59;21043;-31
2021/06/15 23:43:35;;;;;;;17.80;15.95;;;24.70;55.20;;;;;;4465905;59;21055;-31
2021/06/15 23:48:36;;;;;;;17.48;15.68;;;24.70;55.20;;;;;;4438467;59;21542;-27
2021/06/15 23:53:37;;;;;;;17.42;15.63;;;24.70;55.90;;;;;;4455783;59;21067;-31
2021/06/15 23:58:38;;;;;;;18.55;16.40;;;24.70;55.30;;;;;;4444812;59;21051;-34
